Flight Track Log - Related Links

Times and Time Zones

All times are in EDT time to prevent confusion due to time zone crossing. See the CCA1429 flight status page for this flight to view local times or setup timezone preferences in your user account.

Time Position Orientation Groundspeed Altitude Reporting Facility
EDT Latitude Longitude Course Direction KTS MPH feet Rate Location/Type
Fri 09:46:32 PM 40.0368 116.5350 221° Southwest  Level Estimated
Fri 09:47:32 PM 39.9554 116.4424 221° Southwest  Level Estimated
Fri 09:48:32 PM 39.8740 116.3499 221° Southwest  Level Estimated
Fri 09:49:32 PM 39.7925 116.2577 221° Southwest  Level Estimated
Fri 09:50:32 PM 39.7110 116.1657 221° Southwest  Level Estimated
Fri 09:51:32 PM 39.6293 116.0739 221° Southwest  Level Estimated
Fri 09:52:32 PM 39.5476 115.9824 221° Southwest  Level Estimated
Fri 09:53:32 PM 39.4659 115.8910 221° Southwest  Level Estimated
Fri 09:54:32 PM 39.3840 115.7999 221° Southwest  Level Estimated
Fri 09:55:32 PM 39.3021 115.7089 221° Southwest  Level Estimated
Fri 09:56:32 PM 39.2201 115.6182 221° Southwest  Level Estimated
Fri 09:57:32 PM 39.1381 115.5277 221° Southwest  Level Estimated
Fri 09:58:32 PM 39.0560 115.4374 220° Southwest  Level Estimated
Fri 09:59:32 PM 38.9738 115.3473 220° Southwest  Level Estimated
Fri 10:00:32 PM 38.8915 115.2574 220° Southwest  Level Estimated
Fri 10:01:32 PM 38.8092 115.1678 220° Southwest  Level Estimated
Fri 10:02:32 PM 38.7268 115.0783 220° Southwest  Level Estimated
Fri 10:03:32 PM 38.6443 114.9891 220° Southwest  Level Estimated
Fri 10:04:32 PM 38.5618 114.9000 220° Southwest  Level Estimated
Fri 10:05:32 PM 38.4792 114.8112 220° Southwest  Level Estimated
Fri 10:06:32 PM 38.3965 114.7225 220° Southwest  Level Estimated
Fri 10:07:32 PM 38.3138 114.6341 220° Southwest  Level Estimated
Fri 10:08:32 PM 38.2310 114.5458 220° Southwest  Level Estimated
Fri 10:09:32 PM 38.1481 114.4578 220° Southwest  Level Estimated
Fri 10:10:32 PM 38.0652 114.3700 220° Southwest  Level Estimated
Fri 10:11:32 PM 37.9822 114.2823 220° Southwest  Level Estimated
Fri 10:12:32 PM 37.8991 114.1949 220° Southwest  Level Estimated
Fri 10:13:32 PM 37.8160 114.1076 220° Southwest  Level Estimated
Fri 10:14:32 PM 37.7328 114.0206 220° Southwest  Level Estimated
Fri 10:15:32 PM 37.6495 113.9337 220° Southwest  Level Estimated
Fri 10:16:32 PM 37.5662 113.8471 219° Southwest  Level Estimated
Fri 10:17:32 PM 37.4828 113.7606 219° Southwest  Level Estimated
Fri 10:18:32 PM 37.3994 113.6743 219° Southwest  Level Estimated
Fri 10:19:32 PM 37.3159 113.5883 219° Southwest  Level Estimated
Fri 10:20:32 PM 37.2323 113.5024 219° Southwest  Level Estimated
Fri 10:21:32 PM 37.1487 113.4167 219° Southwest  Level Estimated
Fri 10:22:32 PM 37.0650 113.3312 219° Southwest  Level Estimated
Fri 10:23:32 PM 36.9812 113.2458 219° Southwest  Level Estimated
Fri 10:24:32 PM 36.8974 113.1607 219° Southwest  Level Estimated
Fri 10:25:32 PM 36.8135 113.0758 219° Southwest  Level Estimated
Fri 10:26:32 PM 36.7296 112.9910 219° Southwest  Level Estimated
Fri 10:27:32 PM 36.6456 112.9064 219° Southwest  Level Estimated
Fri 10:28:32 PM 36.5615 112.8221 219° Southwest  Level Estimated
Fri 10:29:32 PM 36.4774 112.7378 219° Southwest  Level Estimated
Fri 10:30:32 PM 36.3932 112.6538 219° Southwest  Level Estimated
Fri 10:31:32 PM 36.3090 112.5700 219° Southwest  Level Estimated
Fri 10:32:32 PM 36.2247 112.4863 219° Southwest  Level Estimated
Fri 10:33:32 PM 36.1404 112.4028 219° Southwest  Level Estimated
Fri 10:34:32 PM 36.0560 112.3195 219° Southwest  Level Estimated
Fri 10:35:32 PM 35.9715 112.2364 218° Southwest  Level Estimated
Fri 10:36:32 PM 35.8870 112.1535 218° Southwest  Level Estimated
Fri 10:37:32 PM 35.8024 112.0707 218° Southwest  Level Estimated
Fri 10:38:32 PM 35.7178 111.9881 218° Southwest  Level Estimated
Fri 10:39:32 PM 35.6331 111.9057 218° Southwest  Level Estimated
Fri 10:40:32 PM 35.5483 111.8235 218° Southwest  Level Estimated
Fri 10:41:32 PM 35.4635 111.7414 218° Southwest  Level Estimated
Fri 10:42:32 PM 35.3786 111.6595 218° Southwest  Level Estimated
Fri 10:43:32 PM 35.2937 111.5778 218° Southwest  Level Estimated
Fri 10:44:32 PM 35.2088 111.4962 218° Southwest  Level Estimated
Fri 10:45:32 PM 35.1237 111.4149 218° Southwest  Level Estimated
Fri 10:46:32 PM 35.0387 111.3336 218° Southwest  Level Estimated
Fri 10:47:32 PM 34.9535 111.2526 218° Southwest  Level Estimated
Fri 10:48:32 PM 34.8683 111.1717 218° Southwest  Level Estimated
Fri 10:49:32 PM 34.7831 111.0910 218° Southwest  Level Estimated
Fri 10:50:32 PM 34.6978 111.0105 218° Southwest  Level Estimated
Fri 10:51:32 PM 34.6124 110.9301 218° Southwest  Level Estimated
Fri 10:52:32 PM 34.5271 110.8499 218° Southwest  Level Estimated
Fri 10:53:32 PM 34.4416 110.7699 218° Southwest  Level Estimated
Fri 10:54:32 PM 34.3561 110.6900 218° Southwest  Level Estimated
Fri 10:55:32 PM 34.2705 110.6103 218° Southwest  Level Estimated
Fri 10:56:32 PM 34.1849 110.5307 218° Southwest  Level Estimated
Fri 10:57:32 PM 34.0993 110.4513 217° Southwest  Level Estimated
Fri 10:58:32 PM 34.0136 110.3721 217° Southwest  Level Estimated
Fri 10:59:32 PM 33.9278 110.2930 217° Southwest  Level Estimated
Fri 11:00:32 PM 33.8420 110.2141 217° Southwest  Level Estimated
Fri 11:01:32 PM 33.7561 110.1353 217° Southwest  Level Estimated
Fri 11:02:32 PM 33.6702 110.0567 217° Southwest  Level Estimated
Fri 11:03:32 PM 33.5843 109.9783 217° Southwest  Level Estimated
Fri 11:04:32 PM 33.4982 109.9000 217° Southwest  Level Estimated
Fri 11:05:32 PM 33.4122 109.8219 217° Southwest  Level Estimated
Fri 11:06:32 PM 33.3261 109.7439 217° Southwest  Level Estimated
Fri 11:07:32 PM 33.2399 109.6661 217° Southwest  Level Estimated
Fri 11:08:32 PM 33.1537 109.5884 217° Southwest  Level Estimated
Fri 11:09:32 PM 33.0675 109.5109 217° Southwest  Level Estimated
Fri 11:10:32 PM 32.9812 109.4335 217° Southwest  Level Estimated
Fri 11:11:32 PM 32.8948 109.3563 217° Southwest  Level Estimated
Fri 11:12:32 PM 32.8084 109.2793 217° Southwest  Level Estimated
Fri 11:13:32 PM 32.7220 109.2023 217° Southwest  Level Estimated
Fri 11:14:32 PM 32.6355 109.1256 217° Southwest  Level Estimated
Fri 11:15:32 PM 32.5490 109.0490 217° Southwest  Level Estimated
Fri 11:16:32 PM 32.4624 108.9725 217° Southwest  Level Estimated
Fri 11:17:32 PM 32.3758 108.8962 217° Southwest  Level Estimated
Fri 11:18:32 PM 32.2891 108.8200 217° Southwest  Level Estimated
Fri 11:19:32 PM 32.2024 108.7440 217° Southwest  Level Estimated
Fri 11:20:32 PM 32.1156 108.6681 216° Southwest  Level Estimated
Fri 11:21:32 PM 32.0288 108.5924 216° Southwest  Level Estimated
Fri 11:22:32 PM 31.9419 108.5168 216° Southwest  Level Estimated
Fri 11:23:32 PM 31.8550 108.4413 216° Southwest  Level Estimated
Fri 11:24:32 PM 31.7681 108.3660 216° Southwest  Level Estimated
Fri 11:25:32 PM 31.6811 108.2908 216° Southwest  Level Estimated
Fri 11:26:32 PM 31.5941 108.2158 216° Southwest  Level Estimated
Fri 11:27:32 PM 31.5070 108.1409 216° Southwest  Level Estimated
Fri 11:28:32 PM 31.4199 108.0662 216° Southwest  Level Estimated
Fri 11:29:32 PM 31.3327 107.9916 216° Southwest  Level Estimated
Fri 11:30:32 PM 31.2455 107.9171 216° Southwest  Level Estimated
Fri 11:31:32 PM 31.1583 107.8428 216° Southwest  Level Estimated
Fri 11:32:32 PM 31.0710 107.7686 216° Southwest  Level Estimated
Fri 11:33:32 PM 30.9836 107.6945 216° Southwest  Level Estimated
Fri 11:34:32 PM 30.8962 107.6206 216° Southwest  Level Estimated
Fri 11:35:32 PM 30.8088 107.5468 216° Southwest  Level Estimated
Fri 11:36:32 PM 30.7214 107.4731 216° Southwest  Level Estimated
Fri 11:37:32 PM 30.6339 107.3996 216° Southwest  Level Estimated
Fri 11:38:32 PM 30.5463 107.3262 216° Southwest  Level Estimated
Fri 11:39:32 PM 30.4587 107.2530 216° Southwest  Level Estimated
Fri 11:40:32 PM 30.3711 107.1798 216° Southwest  Level Estimated
Fri 11:41:32 PM 30.2835 107.1068 216° Southwest  Level Estimated
Fri 11:42:32 PM 30.1958 107.0340 216° Southwest  Level Estimated
Fri 11:43:32 PM 30.1080 106.9612 216° Southwest  Level Estimated
Fri 11:44:32 PM 30.0202 106.8886 216° Southwest  Level Estimated
Fri 11:45:32 PM 29.9324 106.8162 216° Southwest  Level Estimated
Fri 11:46:32 PM 29.8445 106.7438 216° Southwest  Level Estimated
Fri 11:47:32 PM 29.7566 106.6716 215° Southwest  Level Estimated
Fri 11:48:32 PM 29.6687 106.5995 35° Northeast  Level Estimated
Fri 11:49:32 PM 29.7566 106.6716 215° Southwest  Level Estimated
Fri 11:50:32 PM 29.6687 106.5995 35° Northeast  Level Estimated
Fri 11:51:32 PM 29.7566 106.6716 215° Southwest  Level Estimated
Fri 11:52:32 PM 29.6687 106.5995 35° Northeast  Level Estimated
Fri 11:53:32 PM 29.7566 106.6716 215° Southwest  Level Estimated
Fri 11:54:32 PM 29.6687 106.5995 35° Northeast  Level Estimated
Fri 11:55:32 PM 29.7566 106.6716 215° Southwest  Level Estimated
Fri 11:56:32 PM 29.6687 106.5995 215° Southwest  Level Estimated

Login

Don't have an account? Register now (free) for customized features, flight alerts, and more!